sensor_id;sensor_type;location;lat;lon;timestamp;temperature;humidity
41220;DHT22;26951;47.338;9.196;2023-04-16T00:00:58;4.70;71.40
41220;DHT22;26951;47.338;9.196;2023-04-16T00:03:43;4.70;70.50
41220;DHT22;26951;47.338;9.196;2023-04-16T00:06:27;4.70;69.60
41220;DHT22;26951;47.338;9.196;2023-04-16T00:09:11;4.70;69.50
41220;DHT22;26951;47.338;9.196;2023-04-16T00:11:55;4.70;69.90
41220;DHT22;26951;47.338;9.196;2023-04-16T00:14:40;4.70;70.60
41220;DHT22;26951;47.338;9.196;2023-04-16T00:17:25;4.70;70.10
41220;DHT22;26951;47.338;9.196;2023-04-16T00:20:09;4.70;69.90
41220;DHT22;26951;47.338;9.196;2023-04-16T00:22:54;4.70;71.00
41220;DHT22;26951;47.338;9.196;2023-04-16T00:25:38;4.70;71.70
41220;DHT22;26951;47.338;9.196;2023-04-16T00:28:23;4.70;71.00
41220;DHT22;26951;47.338;9.196;2023-04-16T00:31:07;4.70;70.70
41220;DHT22;26951;47.338;9.196;2023-04-16T00:33:51;4.70;69.80
41220;DHT22;26951;47.338;9.196;2023-04-16T00:36:35;4.70;69.80
41220;DHT22;26951;47.338;9.196;2023-04-16T00:39:19;4.60;68.90
41220;DHT22;26951;47.338;9.196;2023-04-16T00:42:03;4.70;69.20
41220;DHT22;26951;47.338;9.196;2023-04-16T00:44:48;4.60;69.50
41220;DHT22;26951;47.338;9.196;2023-04-16T00:47:32;4.60;70.00
41220;DHT22;26951;47.338;9.196;2023-04-16T00:50:17;4.60;70.20
41220;DHT22;26951;47.338;9.196;2023-04-16T00:53:01;4.60;70.80
41220;DHT22;26951;47.338;9.196;2023-04-16T00:55:47;4.60;70.30
41220;DHT22;26951;47.338;9.196;2023-04-16T00:58:33;4.60;70.30
41220;DHT22;26951;47.338;9.196;2023-04-16T01:04:51;4.50;69.40
41220;DHT22;26951;47.338;9.196;2023-04-16T01:07:36;4.50;70.60
41220;DHT22;26951;47.338;9.196;2023-04-16T01:10:20;4.50;71.90
41220;DHT22;26951;47.338;9.196;2023-04-16T01:13:04;4.60;71.80
41220;DHT22;26951;47.338;9.196;2023-04-16T01:15:48;4.60;72.30
41220;DHT22;26951;47.338;9.196;2023-04-16T01:18:32;4.60;71.70
41220;DHT22;26951;47.338;9.196;2023-04-16T01:21:16;4.50;71.50
41220;DHT22;26951;47.338;9.196;2023-04-16T01:24:03;4.50;72.10
41220;DHT22;26951;47.338;9.196;2023-04-16T01:26:48;4.50;71.50
41220;DHT22;26951;47.338;9.196;2023-04-16T01:29:32;4.30;70.50
41220;DHT22;26951;47.338;9.196;2023-04-16T01:32:16;4.30;71.40
41220;DHT22;26951;47.338;9.196;2023-04-16T01:35:00;4.30;72.40
41220;DHT22;26951;47.338;9.196;2023-04-16T01:37:45;4.30;71.50
41220;DHT22;26951;47.338;9.196;2023-04-16T01:40:29;4.20;71.00
41220;DHT22;26951;47.338;9.196;2023-04-16T01:43:13;4.30;71.80
41220;DHT22;26951;47.338;9.196;2023-04-16T01:46:13;4.20;72.20
41220;DHT22;26951;47.338;9.196;2023-04-16T01:48:58;4.10;71.40
41220;DHT22;26951;47.338;9.196;2023-04-16T01:51:42;4.10;71.90
41220;DHT22;26951;47.338;9.196;2023-04-16T01:54:26;4.10;71.60
41220;DHT22;26951;47.338;9.196;2023-04-16T01:57:10;4.10;71.50
41220;DHT22;26951;47.338;9.196;2023-04-16T01:59:54;4.10;71.80
41220;DHT22;26951;47.338;9.196;2023-04-16T02:02:38;4.00;71.40
41220;DHT22;26951;47.338;9.196;2023-04-16T02:05:22;4.00;70.30
41220;DHT22;26951;47.338;9.196;2023-04-16T02:08:06;3.90;70.20
41220;DHT22;26951;47.338;9.196;2023-04-16T02:10:50;3.90;71.00
41220;DHT22;26951;47.338;9.196;2023-04-16T02:13:34;3.90;71.10
41220;DHT22;26951;47.338;9.196;2023-04-16T02:16:19;3.80;71.00
41220;DHT22;26951;47.338;9.196;2023-04-16T02:19:03;3.80;70.50
41220;DHT22;26951;47.338;9.196;2023-04-16T02:21:47;3.80;70.10
41220;DHT22;26951;47.338;9.196;2023-04-16T02:24:32;3.80;69.80
41220;DHT22;26951;47.338;9.196;2023-04-16T02:27:16;3.70;69.60
41220;DHT22;26951;47.338;9.196;2023-04-16T02:30:00;3.70;69.80
41220;DHT22;26951;47.338;9.196;2023-04-16T02:32:45;3.70;69.60
41220;DHT22;26951;47.338;9.196;2023-04-16T02:35:31;3.60;69.90
41220;DHT22;26951;47.338;9.196;2023-04-16T02:38:18;3.70;70.00
41220;DHT22;26951;47.338;9.196;2023-04-16T02:41:02;3.60;69.90
41220;DHT22;26951;47.338;9.196;2023-04-16T02:43:46;3.70;69.30
41220;DHT22;26951;47.338;9.196;2023-04-16T02:46:30;3.70;68.00
41220;DHT22;26951;47.338;9.196;2023-04-16T02:49:14;3.70;67.40
41220;DHT22;26951;47.338;9.196;2023-04-16T02:51:58;3.60;67.10
41220;DHT22;26951;47.338;9.196;2023-04-16T02:54:43;3.70;66.80
41220;DHT22;26951;47.338;9.196;2023-04-16T02:57:27;3.60;65.40
41220;DHT22;26951;47.338;9.196;2023-04-16T03:00:11;3.60;66.40
41220;DHT22;26951;47.338;9.196;2023-04-16T03:02:55;3.60;65.50
41220;DHT22;26951;47.338;9.196;2023-04-16T03:05:40;3.60;66.10
41220;DHT22;26951;47.338;9.196;2023-04-16T03:08:24;3.60;66.10
41220;DHT22;26951;47.338;9.196;2023-04-16T03:11:08;3.60;66.70
41220;DHT22;26951;47.338;9.196;2023-04-16T03:13:52;3.50;67.00
41220;DHT22;26951;47.338;9.196;2023-04-16T03:16:37;3.50;67.20
41220;DHT22;26951;47.338;9.196;2023-04-16T03:19:20;3.50;67.30
41220;DHT22;26951;47.338;9.196;2023-04-16T03:22:04;3.50;67.00
41220;DHT22;26951;47.338;9.196;2023-04-16T03:24:49;3.50;66.80
41220;DHT22;26951;47.338;9.196;2023-04-16T03:27:34;3.40;66.10
41220;DHT22;26951;47.338;9.196;2023-04-16T03:30:18;3.40;66.00
41220;DHT22;26951;47.338;9.196;2023-04-16T03:33:02;3.40;65.70
41220;DHT22;26951;47.338;9.196;2023-04-16T03:35:54;3.40;66.10
41220;DHT22;26951;47.338;9.196;2023-04-16T03:38:38;3.40;66.00
41220;DHT22;26951;47.338;9.196;2023-04-16T03:41:22;3.30;66.40
41220;DHT22;26951;47.338;9.196;2023-04-16T03:44:07;3.30;66.80
41220;DHT22;26951;47.338;9.196;2023-04-16T03:46:51;3.30;66.70
41220;DHT22;26951;47.338;9.196;2023-04-16T03:49:35;3.30;66.80
41220;DHT22;26951;47.338;9.196;2023-04-16T03:52:19;3.30;67.30
41220;DHT22;26951;47.338;9.196;2023-04-16T03:55:03;3.30;67.00
41220;DHT22;26951;47.338;9.196;2023-04-16T03:57:48;3.30;67.00
41220;DHT22;26951;47.338;9.196;2023-04-16T04:00:32;3.20;66.50
41220;DHT22;26951;47.338;9.196;2023-04-16T04:03:16;3.20;66.40
41220;DHT22;26951;47.338;9.196;2023-04-16T04:06:06;3.20;66.70
41220;DHT22;26951;47.338;9.196;2023-04-16T04:08:50;3.20;66.50
41220;DHT22;26951;47.338;9.196;2023-04-16T04:11:34;3.20;66.40
41220;DHT22;26951;47.338;9.196;2023-04-16T04:14:18;3.20;66.20
41220;DHT22;26951;47.338;9.196;2023-04-16T04:17:02;3.10;65.80
41220;DHT22;26951;47.338;9.196;2023-04-16T04:19:46;3.10;65.80
41220;DHT22;26951;47.338;9.196;2023-04-16T04:22:31;3.10;65.60
41220;DHT22;26951;47.338;9.196;2023-04-16T04:25:16;3.10;65.60
41220;DHT22;26951;47.338;9.196;2023-04-16T04:28:00;3.00;65.70
41220;DHT22;26951;47.338;9.196;2023-04-16T04:30:44;3.00;66.30
41220;DHT22;26951;47.338;9.196;2023-04-16T04:33:28;3.00;66.40
41220;DHT22;26951;47.338;9.196;2023-04-16T04:36:12;3.10;66.40
41220;DHT22;26951;47.338;9.196;2023-04-16T04:38:56;3.00;65.70
41220;DHT22;26951;47.338;9.196;2023-04-16T04:41:40;3.00;66.60
41220;DHT22;26951;47.338;9.196;2023-04-16T04:44:24;3.00;66.20
41220;DHT22;26951;47.338;9.196;2023-04-16T04:47:08;3.00;65.80
41220;DHT22;26951;47.338;9.196;2023-04-16T04:49:53;3.00;66.10
41220;DHT22;26951;47.338;9.196;2023-04-16T04:52:37;3.00;66.20
41220;DHT22;26951;47.338;9.196;2023-04-16T04:55:21;3.00;66.30
41220;DHT22;26951;47.338;9.196;2023-04-16T04:58:06;3.00;66.50
41220;DHT22;26951;47.338;9.196;2023-04-16T05:00:51;3.00;66.70
41220;DHT22;26951;47.338;9.196;2023-04-16T05:03:35;3.00;66.30
41220;DHT22;26951;47.338;9.196;2023-04-16T05:06:19;3.00;65.90
41220;DHT22;26951;47.338;9.196;2023-04-16T05:09:03;2.90;65.90
41220;DHT22;26951;47.338;9.196;2023-04-16T05:11:47;2.90;65.70
41220;DHT22;26951;47.338;9.196;2023-04-16T05:14:31;2.90;66.00
41220;DHT22;26951;47.338;9.196;2023-04-16T05:17:15;2.90;66.80
41220;DHT22;26951;47.338;9.196;2023-04-16T05:20:00;2.90;67.30
41220;DHT22;26951;47.338;9.196;2023-04-16T05:22:44;2.90;67.50
41220;DHT22;26951;47.338;9.196;2023-04-16T05:25:28;2.90;67.80
41220;DHT22;26951;47.338;9.196;2023-04-16T05:28:12;2.90;67.90
41220;DHT22;26951;47.338;9.196;2023-04-16T05:30:56;2.90;67.30
41220;DHT22;26951;47.338;9.196;2023-04-16T05:33:40;2.90;67.10
41220;DHT22;26951;47.338;9.196;2023-04-16T05:36:24;2.90;67.10
41220;DHT22;26951;47.338;9.196;2023-04-16T05:39:08;2.90;67.40
41220;DHT22;26951;47.338;9.196;2023-04-16T05:41:53;2.90;67.90
41220;DHT22;26951;47.338;9.196;2023-04-16T05:44:39;2.90;67.90
41220;DHT22;26951;47.338;9.196;2023-04-16T05:47:23;2.90;68.50
41220;DHT22;26951;47.338;9.196;2023-04-16T05:50:08;3.00;68.60
41220;DHT22;26951;47.338;9.196;2023-04-16T05:52:52;2.90;68.00
41220;DHT22;26951;47.338;9.196;2023-04-16T05:55:36;3.00;68.00
41220;DHT22;26951;47.338;9.196;2023-04-16T05:58:21;3.00;67.90
41220;DHT22;26951;47.338;9.196;2023-04-16T06:01:05;3.00;68.40
41220;DHT22;26951;47.338;9.196;2023-04-16T06:03:50;3.00;68.40
41220;DHT22;26951;47.338;9.196;2023-04-16T06:06:34;3.00;68.50
41220;DHT22;26951;47.338;9.196;2023-04-16T06:09:20;3.00;68.90
41220;DHT22;26951;47.338;9.196;2023-04-16T06:12:04;3.00;69.30
41220;DHT22;26951;47.338;9.196;2023-04-16T06:14:48;3.10;68.90
41220;DHT22;26951;47.338;9.196;2023-04-16T06:17:32;3.10;69.30
41220;DHT22;26951;47.338;9.196;2023-04-16T06:20:16;3.10;68.60
41220;DHT22;26951;47.338;9.196;2023-04-16T06:23:00;3.10;69.00
41220;DHT22;26951;47.338;9.196;2023-04-16T06:25:45;3.10;69.20
41220;DHT22;26951;47.338;9.196;2023-04-16T06:28:29;3.10;68.90
41220;DHT22;26951;47.338;9.196;2023-04-16T06:31:13;3.20;68.70
41220;DHT22;26951;47.338;9.196;2023-04-16T06:33:57;3.20;68.50
41220;DHT22;26951;47.338;9.196;2023-04-16T06:36:42;3.20;68.50
41220;DHT22;26951;47.338;9.196;2023-04-16T06:39:26;3.20;68.60
41220;DHT22;26951;47.338;9.196;2023-04-16T06:42:10;3.20;68.40
41220;DHT22;26951;47.338;9.196;2023-04-16T06:44:54;3.20;68.40
41220;DHT22;26951;47.338;9.196;2023-04-16T06:47:38;3.30;68.20
41220;DHT22;26951;47.338;9.196;2023-04-16T06:50:24;3.30;68.00
41220;DHT22;26951;47.338;9.196;2023-04-16T06:53:09;3.30;68.30
41220;DHT22;26951;47.338;9.196;2023-04-16T06:55:54;3.30;68.20
41220;DHT22;26951;47.338;9.196;2023-04-16T06:58:38;3.30;68.10
41220;DHT22;26951;47.338;9.196;2023-04-16T07:01:22;3.30;68.30
41220;DHT22;26951;47.338;9.196;2023-04-16T07:04:07;3.30;68.40
41220;DHT22;26951;47.338;9.196;2023-04-16T07:06:52;3.30;68.30
41220;DHT22;26951;47.338;9.196;2023-04-16T07:09:36;3.30;68.30
41220;DHT22;26951;47.338;9.196;2023-04-16T07:12:20;3.40;68.00
41220;DHT22;26951;47.338;9.196;2023-04-16T07:15:05;3.40;67.90
41220;DHT22;26951;47.338;9.196;2023-04-16T07:17:49;3.40;68.00
41220;DHT22;26951;47.338;9.196;2023-04-16T07:20:33;3.40;68.70
41220;DHT22;26951;47.338;9.196;2023-04-16T07:23:18;3.40;68.90
41220;DHT22;26951;47.338;9.196;2023-04-16T07:26:03;3.50;69.00
41220;DHT22;26951;47.338;9.196;2023-04-16T07:28:47;3.50;68.90
41220;DHT22;26951;47.338;9.196;2023-04-16T07:31:31;3.50;69.30
41220;DHT22;26951;47.338;9.196;2023-04-16T07:34:15;3.50;69.30
41220;DHT22;26951;47.338;9.196;2023-04-16T07:37:00;3.50;67.50
41220;DHT22;26951;47.338;9.196;2023-04-16T07:39:44;3.50;68.40
41220;DHT22;26951;47.338;9.196;2023-04-16T07:42:28;3.50;69.00
41220;DHT22;26951;47.338;9.196;2023-04-16T07:45:12;3.50;69.80
41220;DHT22;26951;47.338;9.196;2023-04-16T07:47:56;3.60;69.60
41220;DHT22;26951;47.338;9.196;2023-04-16T07:50:40;3.60;69.10
41220;DHT22;26951;47.338;9.196;2023-04-16T07:53:26;3.60;69.80
41220;DHT22;26951;47.338;9.196;2023-04-16T07:56:10;3.60;68.90
41220;DHT22;26951;47.338;9.196;2023-04-16T07:58:54;3.70;70.00
41220;DHT22;26951;47.338;9.196;2023-04-16T08:01:38;3.70;69.60
41220;DHT22;26951;47.338;9.196;2023-04-16T08:04:23;3.70;69.20
41220;DHT22;26951;47.338;9.196;2023-04-16T08:07:07;3.80;70.10
41220;DHT22;26951;47.338;9.196;2023-04-16T08:09:52;3.80;69.50
41220;DHT22;26951;47.338;9.196;2023-04-16T08:12:36;3.90;70.20
41220;DHT22;26951;47.338;9.196;2023-04-16T08:15:21;4.00;69.70
41220;DHT22;26951;47.338;9.196;2023-04-16T08:18:05;4.00;69.80
41220;DHT22;26951;47.338;9.196;2023-04-16T08:20:50;4.10;70.40
41220;DHT22;26951;47.338;9.196;2023-04-16T08:23:34;4.10;70.90
41220;DHT22;26951;47.338;9.196;2023-04-16T08:26:18;4.20;70.50
41220;DHT22;26951;47.338;9.196;2023-04-16T08:29:02;4.20;69.80
41220;DHT22;26951;47.338;9.196;2023-04-16T08:31:46;4.20;68.70
41220;DHT22;26951;47.338;9.196;2023-04-16T08:34:31;4.30;70.50
41220;DHT22;26951;47.338;9.196;2023-04-16T08:37:15;4.40;70.70
41220;DHT22;26951;47.338;9.196;2023-04-16T08:39:59;4.40;70.70
41220;DHT22;26951;47.338;9.196;2023-04-16T08:42:47;4.50;70.70
41220;DHT22;26951;47.338;9.196;2023-04-16T08:45:36;4.50;69.70
41220;DHT22;26951;47.338;9.196;2023-04-16T08:48:21;4.50;69.40
41220;DHT22;26951;47.338;9.196;2023-04-16T08:51:08;4.50;68.00
41220;DHT22;26951;47.338;9.196;2023-04-16T08:53:59;4.50;68.40
41220;DHT22;26951;47.338;9.196;2023-04-16T08:56:45;4.50;69.40
41220;DHT22;26951;47.338;9.196;2023-04-16T08:59:30;4.50;70.60
41220;DHT22;26951;47.338;9.196;2023-04-16T09:02:15;4.60;70.30
41220;DHT22;26951;47.338;9.196;2023-04-16T09:05:00;4.60;69.20
41220;DHT22;26951;47.338;9.196;2023-04-16T09:07:46;4.70;69.20
41220;DHT22;26951;47.338;9.196;2023-04-16T09:10:30;4.70;69.10
41220;DHT22;26951;47.338;9.196;2023-04-16T09:13:14;4.80;68.70
41220;DHT22;26951;47.338;9.196;2023-04-16T09:16:00;4.80;68.90
41220;DHT22;26951;47.338;9.196;2023-04-16T09:18:44;4.80;68.70
41220;DHT22;26951;47.338;9.196;2023-04-16T09:21:31;4.80;69.50
41220;DHT22;26951;47.338;9.196;2023-04-16T09:24:15;4.90;70.60
41220;DHT22;26951;47.338;9.196;2023-04-16T09:26:59;5.00;71.40
41220;DHT22;26951;47.338;9.196;2023-04-16T09:29:44;5.00;71.20
41220;DHT22;26951;47.338;9.196;2023-04-16T09:32:28;5.10;69.70
41220;DHT22;26951;47.338;9.196;2023-04-16T09:35:13;5.10;70.10
41220;DHT22;26951;47.338;9.196;2023-04-16T09:37:58;5.10;69.80
41220;DHT22;26951;47.338;9.196;2023-04-16T09:40:43;5.20;69.60
41220;DHT22;26951;47.338;9.196;2023-04-16T09:43:27;5.10;69.30
41220;DHT22;26951;47.338;9.196;2023-04-16T09:46:11;5.10;68.90
41220;DHT22;26951;47.338;9.196;2023-04-16T09:48:55;5.10;69.00
41220;DHT22;26951;47.338;9.196;2023-04-16T09:51:43;5.20;69.90
41220;DHT22;26951;47.338;9.196;2023-04-16T09:54:28;5.20;70.20
41220;DHT22;26951;47.338;9.196;2023-04-16T09:57:12;5.30;70.60
41220;DHT22;26951;47.338;9.196;2023-04-16T10:00:07;5.20;68.40
41220;DHT22;26951;47.338;9.196;2023-04-16T10:03:04;5.30;68.50
41220;DHT22;26951;47.338;9.196;2023-04-16T10:05:52;5.20;68.60
41220;DHT22;26951;47.338;9.196;2023-04-16T10:08:36;5.30;67.50
41220;DHT22;26951;47.338;9.196;2023-04-16T10:11:26;5.20;68.50
41220;DHT22;26951;47.338;9.196;2023-04-16T10:14:10;5.20;69.20
41220;DHT22;26951;47.338;9.196;2023-04-16T10:16:57;5.20;69.50
41220;DHT22;26951;47.338;9.196;2023-04-16T10:19:42;5.20;70.20
41220;DHT22;26951;47.338;9.196;2023-04-16T10:22:27;5.30;69.90
41220;DHT22;26951;47.338;9.196;2023-04-16T10:25:11;5.30;70.60
41220;DHT22;26951;47.338;9.196;2023-04-16T10:27:56;5.30;70.60
41220;DHT22;26951;47.338;9.196;2023-04-16T10:30:43;5.40;70.90
41220;DHT22;26951;47.338;9.196;2023-04-16T10:33:38;5.40;71.50
41220;DHT22;26951;47.338;9.196;2023-04-16T10:36:24;5.50;71.50
41220;DHT22;26951;47.338;9.196;2023-04-16T10:39:12;5.50;71.20
41220;DHT22;26951;47.338;9.196;2023-04-16T10:42:10;5.60;71.30
41220;DHT22;26951;47.338;9.196;2023-04-16T10:44:58;5.60;71.00
41220;DHT22;26951;47.338;9.196;2023-04-16T10:47:43;5.70;70.00
41220;DHT22;26951;47.338;9.196;2023-04-16T10:50:34;5.70;70.00
41220;DHT22;26951;47.338;9.196;2023-04-16T10:53:21;5.70;69.70
41220;DHT22;26951;47.338;9.196;2023-04-16T10:58:52;5.80;70.80
41220;DHT22;26951;47.338;9.196;2023-04-16T11:01:45;5.90;69.50
41220;DHT22;26951;47.338;9.196;2023-04-16T11:04:35;5.90;68.90
41220;DHT22;26951;47.338;9.196;2023-04-16T11:07:21;5.90;69.90
41220;DHT22;26951;47.338;9.196;2023-04-16T11:10:14;5.90;69.60
41220;DHT22;26951;47.338;9.196;2023-04-16T11:12:58;6.00;69.30
41220;DHT22;26951;47.338;9.196;2023-04-16T11:15:43;6.00;69.20
41220;DHT22;26951;47.338;9.196;2023-04-16T11:18:27;6.00;68.90
41220;DHT22;26951;47.338;9.196;2023-04-16T11:21:12;6.00;68.40
41220;DHT22;26951;47.338;9.196;2023-04-16T11:23:56;6.10;68.90
41220;DHT22;26951;47.338;9.196;2023-04-16T11:26:41;6.10;68.40
41220;DHT22;26951;47.338;9.196;2023-04-16T11:29:25;6.10;67.80
41220;DHT22;26951;47.338;9.196;2023-04-16T11:32:09;6.20;68.50
41220;DHT22;26951;47.338;9.196;2023-04-16T11:34:53;6.20;68.00
41220;DHT22;26951;47.338;9.196;2023-04-16T11:37:38;6.20;68.90
41220;DHT22;26951;47.338;9.196;2023-04-16T11:40:22;6.10;70.20
41220;DHT22;26951;47.338;9.196;2023-04-16T11:43:14;6.20;69.80
41220;DHT22;26951;47.338;9.196;2023-04-16T11:46:04;6.20;68.90
41220;DHT22;26951;47.338;9.196;2023-04-16T11:48:50;6.20;69.60
41220;DHT22;26951;47.338;9.196;2023-04-16T11:51:45;6.20;70.50
41220;DHT22;26951;47.338;9.196;2023-04-16T11:54:30;6.20;70.90
41220;DHT22;26951;47.338;9.196;2023-04-16T11:57:30;6.20;71.10
41220;DHT22;26951;47.338;9.196;2023-04-16T12:00:15;6.20;72.10
41220;DHT22;26951;47.338;9.196;2023-04-16T12:03:01;6.30;71.30
41220;DHT22;26951;47.338;9.196;2023-04-16T12:05:45;6.30;71.30
41220;DHT22;26951;47.338;9.196;2023-04-16T12:08:30;6.30;71.50
41220;DHT22;26951;47.338;9.196;2023-04-16T12:11:14;6.30;71.90
41220;DHT22;26951;47.338;9.196;2023-04-16T12:14:09;6.40;72.40
41220;DHT22;26951;47.338;9.196;2023-04-16T12:16:53;6.40;71.90
41220;DHT22;26951;47.338;9.196;2023-04-16T12:19:57;6.40;72.30
41220;DHT22;26951;47.338;9.196;2023-04-16T12:22:46;6.50;72.90
41220;DHT22;26951;47.338;9.196;2023-04-16T12:25:30;6.40;73.70
41220;DHT22;26951;47.338;9.196;2023-04-16T12:28:25;6.40;73.10
41220;DHT22;26951;47.338;9.196;2023-04-16T12:31:09;6.50;73.10
41220;DHT22;26951;47.338;9.196;2023-04-16T12:34:01;6.50;72.30
41220;DHT22;26951;47.338;9.196;2023-04-16T12:36:46;6.50;73.50
41220;DHT22;26951;47.338;9.196;2023-04-16T12:39:30;6.50;73.40
41220;DHT22;26951;47.338;9.196;2023-04-16T12:42:15;6.50;73.80
41220;DHT22;26951;47.338;9.196;2023-04-16T12:44:59;6.50;74.40
41220;DHT22;26951;47.338;9.196;2023-04-16T12:47:43;6.50;75.10
41220;DHT22;26951;47.338;9.196;2023-04-16T12:50:27;6.50;74.70
41220;DHT22;26951;47.338;9.196;2023-04-16T12:53:12;6.50;74.90
41220;DHT22;26951;47.338;9.196;2023-04-16T12:55:56;6.50;75.50
41220;DHT22;26951;47.338;9.196;2023-04-16T12:58:41;6.50;75.20
41220;DHT22;26951;47.338;9.196;2023-04-16T13:01:25;6.60;75.60
41220;DHT22;26951;47.338;9.196;2023-04-16T13:04:09;6.60;75.60
41220;DHT22;26951;47.338;9.196;2023-04-16T13:06:55;6.70;76.10
41220;DHT22;26951;47.338;9.196;2023-04-16T13:09:39;6.70;75.90
41220;DHT22;26951;47.338;9.196;2023-04-16T13:12:23;6.70;76.30
41220;DHT22;26951;47.338;9.196;2023-04-16T13:15:08;6.80;75.90
41220;DHT22;26951;47.338;9.196;2023-04-16T13:17:53;6.80;75.90
41220;DHT22;26951;47.338;9.196;2023-04-16T13:20:37;6.80;74.40
41220;DHT22;26951;47.338;9.196;2023-04-16T13:23:21;6.80;75.00
41220;DHT22;26951;47.338;9.196;2023-04-16T13:26:05;6.90;75.70
41220;DHT22;26951;47.338;9.196;2023-04-16T13:28:49;6.90;74.50
41220;DHT22;26951;47.338;9.196;2023-04-16T13:31:33;6.90;73.60
41220;DHT22;26951;47.338;9.196;2023-04-16T13:34:18;6.90;73.90
41220;DHT22;26951;47.338;9.196;2023-04-16T13:37:02;6.90;73.40
41220;DHT22;26951;47.338;9.196;2023-04-16T13:39:46;7.00;73.20
41220;DHT22;26951;47.338;9.196;2023-04-16T13:42:31;6.90;72.90
41220;DHT22;26951;47.338;9.196;2023-04-16T13:45:15;6.90;71.80
41220;DHT22;26951;47.338;9.196;2023-04-16T13:47:59;7.00;73.00
41220;DHT22;26951;47.338;9.196;2023-04-16T13:50:43;7.00;73.00
41220;DHT22;26951;47.338;9.196;2023-04-16T13:53:28;7.00;73.20
41220;DHT22;26951;47.338;9.196;2023-04-16T13:56:12;7.00;73.60
41220;DHT22;26951;47.338;9.196;2023-04-16T13:58:56;7.00;73.60
41220;DHT22;26951;47.338;9.196;2023-04-16T14:01:40;7.10;74.20
41220;DHT22;26951;47.338;9.196;2023-04-16T14:04:24;7.10;73.10
41220;DHT22;26951;47.338;9.196;2023-04-16T14:07:08;7.10;73.30
41220;DHT22;26951;47.338;9.196;2023-04-16T14:09:53;7.00;73.00
41220;DHT22;26951;47.338;9.196;2023-04-16T14:12:37;7.10;73.40
41220;DHT22;26951;47.338;9.196;2023-04-16T14:15:22;7.10;74.20
41220;DHT22;26951;47.338;9.196;2023-04-16T14:18:06;7.10;73.30
41220;DHT22;26951;47.338;9.196;2023-04-16T14:20:50;7.20;72.30
41220;DHT22;26951;47.338;9.196;2023-04-16T14:23:34;7.20;72.60
41220;DHT22;26951;47.338;9.196;2023-04-16T14:26:18;7.20;73.10
41220;DHT22;26951;47.338;9.196;2023-04-16T14:29:04;7.20;73.50
41220;DHT22;26951;47.338;9.196;2023-04-16T14:31:49;7.20;73.80
41220;DHT22;26951;47.338;9.196;2023-04-16T14:34:33;7.20;72.80
41220;DHT22;26951;47.338;9.196;2023-04-16T14:37:17;7.20;71.80
41220;DHT22;26951;47.338;9.196;2023-04-16T14:40:02;7.10;72.50
41220;DHT22;26951;47.338;9.196;2023-04-16T14:42:51;7.20;72.30
41220;DHT22;26951;47.338;9.196;2023-04-16T14:45:36;7.20;71.70
41220;DHT22;26951;47.338;9.196;2023-04-16T14:48:21;7.20;72.40
41220;DHT22;26951;47.338;9.196;2023-04-16T14:51:05;7.20;71.70
41220;DHT22;26951;47.338;9.196;2023-04-16T14:53:50;7.20;72.40
41220;DHT22;26951;47.338;9.196;2023-04-16T14:56:34;7.20;73.20
41220;DHT22;26951;47.338;9.196;2023-04-16T14:59:19;7.20;73.20
41220;DHT22;26951;47.338;9.196;2023-04-16T15:02:03;7.20;72.80
41220;DHT22;26951;47.338;9.196;2023-04-16T15:04:47;7.20;72.60
41220;DHT22;26951;47.338;9.196;2023-04-16T15:07:31;7.20;72.80
41220;DHT22;26951;47.338;9.196;2023-04-16T15:10:15;7.20;72.40
41220;DHT22;26951;47.338;9.196;2023-04-16T15:13:00;7.20;72.60
41220;DHT22;26951;47.338;9.196;2023-04-16T15:15:44;7.20;71.60
41220;DHT22;26951;47.338;9.196;2023-04-16T15:18:28;7.10;71.90
41220;DHT22;26951;47.338;9.196;2023-04-16T15:21:13;7.10;72.40
41220;DHT22;26951;47.338;9.196;2023-04-16T15:23:57;7.00;72.70
41220;DHT22;26951;47.338;9.196;2023-04-16T15:26:41;7.00;73.20
41220;DHT22;26951;47.338;9.196;2023-04-16T15:29:25;7.00;73.70
41220;DHT22;26951;47.338;9.196;2023-04-16T15:32:09;7.00;73.70
41220;DHT22;26951;47.338;9.196;2023-04-16T15:34:54;7.00;74.10
41220;DHT22;26951;47.338;9.196;2023-04-16T15:37:38;7.00;73.10
41220;DHT22;26951;47.338;9.196;2023-04-16T15:40:23;7.00;73.60
41220;DHT22;26951;47.338;9.196;2023-04-16T15:43:07;7.00;73.00
41220;DHT22;26951;47.338;9.196;2023-04-16T15:45:52;7.00;73.40
41220;DHT22;26951;47.338;9.196;2023-04-16T15:48:36;7.00;73.00
41220;DHT22;26951;47.338;9.196;2023-04-16T15:51:20;6.90;72.70
41220;DHT22;26951;47.338;9.196;2023-04-16T15:54:04;6.90;73.50
41220;DHT22;26951;47.338;9.196;2023-04-16T15:56:49;6.90;73.80
41220;DHT22;26951;47.338;9.196;2023-04-16T15:59:34;6.90;73.70
41220;DHT22;26951;47.338;9.196;2023-04-16T16:02:18;6.80;74.00
41220;DHT22;26951;47.338;9.196;2023-04-16T16:05:03;6.80;74.20
41220;DHT22;26951;47.338;9.196;2023-04-16T16:07:47;6.80;73.90
41220;DHT22;26951;47.338;9.196;2023-04-16T16:10:31;6.80;73.10
41220;DHT22;26951;47.338;9.196;2023-04-16T16:13:15;6.80;73.30
41220;DHT22;26951;47.338;9.196;2023-04-16T16:16:01;6.70;73.50
41220;DHT22;26951;47.338;9.196;2023-04-16T16:18:46;6.70;74.00
41220;DHT22;26951;47.338;9.196;2023-04-16T16:21:30;6.70;74.00
41220;DHT22;26951;47.338;9.196;2023-04-16T16:24:15;6.70;74.10
41220;DHT22;26951;47.338;9.196;2023-04-16T16:26:59;6.70;74.70
41220;DHT22;26951;47.338;9.196;2023-04-16T16:29:44;6.70;75.10
41220;DHT22;26951;47.338;9.196;2023-04-16T16:32:29;6.70;75.00
41220;DHT22;26951;47.338;9.196;2023-04-16T16:35:13;6.70;74.90
41220;DHT22;26951;47.338;9.196;2023-04-16T16:37:57;6.70;74.60
41220;DHT22;26951;47.338;9.196;2023-04-16T16:40:42;6.70;74.00
41220;DHT22;26951;47.338;9.196;2023-04-16T16:43:26;6.70;74.10
41220;DHT22;26951;47.338;9.196;2023-04-16T16:46:10;6.70;74.00
41220;DHT22;26951;47.338;9.196;2023-04-16T16:48:54;6.60;73.40
41220;DHT22;26951;47.338;9.196;2023-04-16T16:51:38;6.70;74.00
41220;DHT22;26951;47.338;9.196;2023-04-16T16:54:23;6.60;73.50
41220;DHT22;26951;47.338;9.196;2023-04-16T16:57:07;6.60;74.00
41220;DHT22;26951;47.338;9.196;2023-04-16T16:59:51;6.60;73.90
41220;DHT22;26951;47.338;9.196;2023-04-16T17:02:37;6.50;74.20
41220;DHT22;26951;47.338;9.196;2023-04-16T17:05:21;6.50;74.30
41220;DHT22;26951;47.338;9.196;2023-04-16T17:08:05;6.50;74.30
41220;DHT22;26951;47.338;9.196;2023-04-16T17:10:49;6.50;74.30
41220;DHT22;26951;47.338;9.196;2023-04-16T17:13:34;6.50;74.60
41220;DHT22;26951;47.338;9.196;2023-04-16T17:16:18;6.50;73.70
41220;DHT22;26951;47.338;9.196;2023-04-16T17:19:02;6.40;74.20
41220;DHT22;26951;47.338;9.196;2023-04-16T17:21:46;6.40;74.90
41220;DHT22;26951;47.338;9.196;2023-04-16T17:24:31;6.40;74.30
41220;DHT22;26951;47.338;9.196;2023-04-16T17:27:15;6.40;73.60
41220;DHT22;26951;47.338;9.196;2023-04-16T17:30:00;6.40;73.00
41220;DHT22;26951;47.338;9.196;2023-04-16T17:32:44;6.40;73.30
41220;DHT22;26951;47.338;9.196;2023-04-16T17:35:29;6.30;73.30
41220;DHT22;26951;47.338;9.196;2023-04-16T17:38:14;6.30;73.10
41220;DHT22;26951;47.338;9.196;2023-04-16T17:40:59;6.30;73.00
41220;DHT22;26951;47.338;9.196;2023-04-16T17:43:46;6.30;73.20